UAL2238 KEWR-KLAX
Flight info
| Callsign | UAL2238 |
|---|---|
| Flight time | N/A |
| Altitude | 32000 |
| Route | PARKE J6 HVQ Q68 LAJUG ARG IRW PNH ABQ DRK J231 HIPPI GABBL HLYWD1 |
| Aircraft | B77W/H-SDE1E2E3FGHIJ2J3J4J5M1RWXY/S |
Departure
| Time | 2026-04-24 01:43 |
|---|---|
| Airport | Newark Liberty International Airport (KEWR) |
Arrival
| Time | N/A |
|---|---|
| Airport | Los Angeles International Airport (KLAX) |
| Time | Latitude | Longitude | Altitude | Speed | Heading |
|---|---|---|---|---|---|
| 2026-04-24 00:44 | 40.68991 | -74.17455 | 24 ft | 0 kts | 285° |
| 2026-04-24 01:30 | 40.68989 | -74.17448 | 24 ft | 2 kts | 281° |
| 2026-04-24 01:31 | 40.68989 | -74.17429 | 24 ft | 2 kts | 252° |
| 2026-04-24 01:31 | 40.68996 | -74.17412 | 24 ft | 2 kts | 229° |
| 2026-04-24 01:31 | 40.69007 | -74.17400 | 24 ft | 2 kts | 206° |
| 2026-04-24 01:31 | 40.69022 | -74.17394 | 24 ft | 2 kts | 182° |
| 2026-04-24 01:32 | 40.69031 | -74.17394 | 24 ft | 0 kts | 168° |
| 2026-04-24 01:32 | 40.69034 | -74.17395 | 24 ft | 0 kts | 168° |
| 2026-04-24 01:37 | 40.69020 | -74.17390 | 24 ft | 4 kts | 168° |
| 2026-04-24 01:37 | 40.68992 | -74.17383 | 24 ft | 4 kts | 168° |
| 2026-04-24 01:38 | 40.68964 | -74.17374 | 24 ft | 4 kts | 168° |
| 2026-04-24 01:38 | 40.68921 | -74.17368 | 24 ft | 10 kts | 186° |
| 2026-04-24 01:38 | 40.68829 | -74.17408 | 24 ft | 17 kts | 204° |
| 2026-04-24 01:38 | 40.68700 | -74.17491 | 24 ft | 23 kts | 207° |
| 2026-04-24 01:39 | 40.68531 | -74.17596 | 24 ft | 28 kts | 206° |
| 2026-04-24 01:39 | 40.68349 | -74.17713 | 24 ft | 29 kts | 207° |
| 2026-04-24 01:39 | 40.68162 | -74.17830 | 25 ft | 28 kts | 206° |
| 2026-04-24 01:39 | 40.67988 | -74.17943 | 25 ft | 26 kts | 207° |
| 2026-04-24 01:40 | 40.67827 | -74.18044 | 25 ft | 24 kts | 204° |
| 2026-04-24 01:40 | 40.67767 | -74.18080 | 25 ft | 0 kts | 205° |
| 2026-04-24 01:40 | 40.67765 | -74.18080 | 25 ft | 0 kts | 197° |
| 2026-04-24 01:40 | 40.67749 | -74.18070 | 25 ft | 6 kts | 139° |
| 2026-04-24 01:41 | 40.67705 | -74.17987 | 25 ft | 15 kts | 119° |
| 2026-04-24 01:41 | 40.67687 | -74.17868 | 25 ft | 11 kts | 46° |
| 2026-04-24 01:41 | 40.67750 | -74.17816 | 25 ft | 10 kts | 28° |
| 2026-04-24 01:41 | 40.67818 | -74.17773 | 25 ft | 13 kts | 25° |
| 2026-04-24 01:42 | 40.67970 | -74.17678 | 25 ft | 49 kts | 26° |
| 2026-04-24 01:42 | 40.68492 | -74.17345 | 24 ft | 115 kts | 26° |
| 2026-04-24 01:42 | 40.69404 | -74.16764 | 27 ft | 171 kts | 24° |
| 2026-04-24 01:42 | 40.70501 | -74.16080 | 574 ft | 176 kts | 23° |
| 2026-04-24 01:43 | 40.71567 | -74.15251 | 1327 ft | 181 kts | 36° |
| 2026-04-24 01:43 | 40.72476 | -74.14192 | 2174 ft | 179 kts | 38° |
| 2026-04-24 01:43 | 40.73431 | -74.13036 | 2603 ft | 196 kts | 38° |
| 2026-04-24 01:43 | 40.74484 | -74.11772 | 3014 ft | 216 kts | 38° |
| 2026-04-24 01:44 | 40.75697 | -74.10373 | 3022 ft | 242 kts | 31° |
| 2026-04-24 01:44 | 40.77282 | -74.09566 | 3002 ft | 247 kts | 4° |
| 2026-04-24 01:44 | 40.78962 | -74.09863 | 2996 ft | 245 kts | 337° |
| 2026-04-24 01:44 | 40.80321 | -74.11181 | 2990 ft | 245 kts | 310° |
| 2026-04-24 01:45 | 40.81049 | -74.13237 | 2999 ft | 252 kts | 285° |
| 2026-04-24 01:45 | 40.81362 | -74.15530 | 3014 ft | 254 kts | 284° |
| 2026-04-24 01:45 | 40.81642 | -74.17853 | 3009 ft | 254 kts | 282° |
| 2026-04-24 01:45 | 40.81703 | -74.20166 | 2996 ft | 256 kts | 265° |
| 2026-04-24 01:46 | 40.81381 | -74.22517 | 3051 ft | 269 kts | 263° |
| 2026-04-24 01:46 | 40.81023 | -74.24923 | 4032 ft | 268 kts | 263° |
| 2026-04-24 01:46 | 40.80671 | -74.27251 | 5308 ft | 255 kts | 264° |
| 2026-04-24 01:46 | 40.80333 | -74.29499 | 6225 ft | 255 kts | 264° |
| 2026-04-24 01:47 | 40.79989 | -74.31782 | 7172 ft | 254 kts | 265° |
| 2026-04-24 01:47 | 40.79646 | -74.34064 | 8013 ft | 256 kts | 265° |
| 2026-04-24 01:47 | 40.79301 | -74.36356 | 8847 ft | 257 kts | 266° |
| 2026-04-24 01:47 | 40.78955 | -74.38655 | 9700 ft | 258 kts | 266° |
| 2026-04-24 01:48 | 40.78605 | -74.40980 | 10409 ft | 263 kts | 267° |
| 2026-04-24 01:48 | 40.78243 | -74.43415 | 10802 ft | 281 kts | 266° |
| 2026-04-24 01:48 | 40.77856 | -74.46024 | 11190 ft | 300 kts | 266° |
| 2026-04-24 01:48 | 40.77436 | -74.48830 | 11669 ft | 317 kts | 266° |
| 2026-04-24 01:49 | 40.76999 | -74.51749 | 12129 ft | 334 kts | 266° |
| 2026-04-24 01:49 | 40.76541 | -74.54791 | 12574 ft | 351 kts | 266° |
| 2026-04-24 01:49 | 40.76054 | -74.58003 | 13310 ft | 360 kts | 266° |
| 2026-04-24 01:49 | 40.75560 | -74.61227 | 14228 ft | 363 kts | 266° |
| 2026-04-24 01:50 | 40.75063 | -74.64467 | 15155 ft | 367 kts | 266° |
| 2026-04-24 01:50 | 40.74552 | -74.67792 | 16050 ft | 372 kts | 265° |
| 2026-04-24 01:50 | 40.74034 | -74.71145 | 17006 ft | 375 kts | 265° |
| 2026-04-24 01:50 | 40.73515 | -74.74501 | 17977 ft | 376 kts | 265° |
| 2026-04-24 01:51 | 40.72995 | -74.77852 | 18892 ft | 380 kts | 265° |
| 2026-04-24 01:51 | 40.72464 | -74.81280 | 19617 ft | 388 kts | 265° |
| 2026-04-24 01:51 | 40.71915 | -74.84813 | 20351 ft | 395 kts | 265° |
| 2026-04-24 01:51 | 40.71359 | -74.88374 | 21181 ft | 399 kts | 265° |
| 2026-04-24 01:52 | 40.70802 | -74.91927 | 21964 ft | 403 kts | 264° |
| 2026-04-24 01:52 | 40.70231 | -74.95564 | 22717 ft | 407 kts | 264° |
| 2026-04-24 01:52 | 40.69655 | -74.99223 | 23437 ft | 412 kts | 264° |
| 2026-04-24 01:52 | 40.69064 | -75.02959 | 24127 ft | 417 kts | 264° |
| 2026-04-24 01:53 | 40.68342 | -75.06655 | 24829 ft | 427 kts | 258° |
| 2026-04-24 01:53 | 40.67123 | -75.10256 | 25538 ft | 440 kts | 249° |
| 2026-04-24 01:53 | 40.65555 | -75.13794 | 26238 ft | 446 kts | 246° |
| 2026-04-24 01:53 | 40.63961 | -75.17281 | 26885 ft | 451 kts | 246° |
| 2026-04-24 01:54 | 40.62335 | -75.20834 | 27528 ft | 455 kts | 246° |
| 2026-04-24 01:54 | 40.60707 | -75.24390 | 28161 ft | 459 kts | 246° |
| 2026-04-24 01:54 | 40.59055 | -75.27996 | 28785 ft | 463 kts | 246° |
| 2026-04-24 01:54 | 40.57390 | -75.31629 | 29405 ft | 466 kts | 246° |
| 2026-04-24 01:55 | 40.55706 | -75.35298 | 30110 ft | 468 kts | 246° |
| 2026-04-24 01:55 | 40.54032 | -75.38938 | 30966 ft | 465 kts | 246° |
| 2026-04-24 01:55 | 40.52374 | -75.42541 | 31707 ft | 463 kts | 246° |
| 2026-04-24 01:55 | 40.50703 | -75.46175 | 31920 ft | 466 kts | 246° |
| 2026-04-24 01:56 | 40.49016 | -75.49835 | 31936 ft | 463 kts | 246° |
| 2026-04-24 01:56 | 40.45688 | -75.57045 | 31938 ft | 462 kts | 246° |
| 2026-04-24 01:57 | 40.42350 | -75.64261 | 31928 ft | 460 kts | 246° |
| 2026-04-24 01:57 | 40.39019 | -75.71448 | 31936 ft | 463 kts | 245° |
| 2026-04-24 01:58 | 40.35676 | -75.78639 | 31930 ft | 461 kts | 245° |
| 2026-04-24 01:58 | 40.32333 | -75.85814 | 31933 ft | 460 kts | 245° |
| 2026-04-24 01:59 | 40.28993 | -75.92971 | 31930 ft | 461 kts | 245° |
| 2026-04-24 01:59 | 40.25648 | -76.00118 | 31935 ft | 459 kts | 245° |
| 2026-04-24 02:00 | 40.22296 | -76.07269 | 31932 ft | 461 kts | 245° |
| 2026-04-24 02:00 | 40.18946 | -76.14397 | 31931 ft | 460 kts | 245° |
| 2026-04-24 02:01 | 40.15590 | -76.21522 | 31928 ft | 462 kts | 245° |
| 2026-04-24 02:01 | 40.12221 | -76.28656 | 31926 ft | 460 kts | 245° |
| 2026-04-24 02:02 | 40.08906 | -76.35813 | 31925 ft | 461 kts | 245° |
| 2026-04-24 02:02 | 40.05599 | -76.42992 | 31920 ft | 461 kts | 245° |
| 2026-04-24 02:03 | 40.00656 | -76.53682 | 31916 ft | 459 kts | 245° |
| 2026-04-24 02:03 | 39.97367 | -76.60769 | 31920 ft | 457 kts | 245° |
| 2026-04-24 02:04 | 39.94080 | -76.67838 | 31928 ft | 459 kts | 244° |
| 2026-04-24 02:04 | 39.90738 | -76.75005 | 31930 ft | 459 kts | 244° |
| 2026-04-24 02:05 | 39.87411 | -76.82125 | 31917 ft | 460 kts | 244° |
| 2026-04-24 02:05 | 39.84092 | -76.89211 | 31916 ft | 460 kts | 244° |
| 2026-04-24 02:06 | 39.80760 | -76.96307 | 31913 ft | 459 kts | 244° |
| 2026-04-24 02:06 | 39.77422 | -77.03402 | 31922 ft | 459 kts | 244° |
| 2026-04-24 02:07 | 39.74099 | -77.10448 | 31925 ft | 461 kts | 244° |
| 2026-04-24 02:07 | 39.70734 | -77.17569 | 31927 ft | 461 kts | 244° |
| 2026-04-24 02:08 | 39.67369 | -77.24670 | 31929 ft | 462 kts | 244° |
| 2026-04-24 02:08 | 39.63993 | -77.31779 | 31925 ft | 461 kts | 244° |
| 2026-04-24 02:09 | 39.60631 | -77.38843 | 31936 ft | 461 kts | 244° |
| 2026-04-24 02:09 | 39.56673 | -77.47141 | 31941 ft | 463 kts | 244° |
| 2026-04-24 02:10 | 39.53853 | -77.53037 | 31945 ft | 463 kts | 244° |
| 2026-04-24 02:10 | 39.50460 | -77.60118 | 31942 ft | 462 kts | 244° |
| 2026-04-24 02:11 | 39.47065 | -77.67189 | 31944 ft | 464 kts | 243° |
| 2026-04-24 02:11 | 39.43652 | -77.74280 | 31939 ft | 463 kts | 243° |
| 2026-04-24 02:12 | 39.40226 | -77.81381 | 31937 ft | 464 kts | 243° |
| 2026-04-24 02:12 | 39.36921 | -77.88573 | 31939 ft | 459 kts | 248° |
| 2026-04-24 02:13 | 39.34075 | -77.95921 | 31935 ft | 461 kts | 248° |
| 2026-04-24 02:13 | 39.30698 | -78.04542 | 31938 ft | 460 kts | 248° |
| 2026-04-24 02:14 | 39.28243 | -78.10750 | 31939 ft | 462 kts | 248° |
| 2026-04-24 02:14 | 39.25307 | -78.18131 | 31942 ft | 461 kts | 248° |
| 2026-04-24 02:15 | 39.22364 | -78.25502 | 31949 ft | 462 kts | 248° |
| 2026-04-24 02:15 | 39.19421 | -78.32845 | 31952 ft | 462 kts | 248° |